createdAt,value
2018-02-14T00:01:23.030Z,-0.70
2018-02-14T00:03:51.331Z,-0.70
2018-02-14T00:06:19.638Z,-0.70
2018-02-14T00:08:49.156Z,-0.70
2018-02-14T00:11:17.447Z,-0.70
2018-02-14T00:13:46.415Z,-0.70
2018-02-14T00:16:14.727Z,-0.70
2018-02-14T00:18:43.768Z,-0.80
2018-02-14T00:21:12.057Z,-0.80
2018-02-14T00:23:40.346Z,-0.80
2018-02-14T00:26:08.612Z,-0.80
2018-02-14T00:28:36.924Z,-0.80
2018-02-14T00:31:05.206Z,-0.80
2018-02-14T00:33:34.167Z,-0.90
2018-02-14T00:36:02.449Z,-0.90
2018-02-14T00:38:30.749Z,-0.90
2018-02-14T00:41:00.218Z,-0.90
2018-02-14T00:43:28.500Z,-1.00
2018-02-14T00:45:56.785Z,-1.00
2018-02-14T00:48:26.113Z,-1.00
2018-02-14T00:50:54.395Z,-1.00
2018-02-14T00:53:22.698Z,-1.10
2018-02-14T00:55:51.263Z,-1.10
2018-02-14T00:58:19.524Z,-1.20
2018-02-14T01:00:48.604Z,-1.20
2018-02-14T01:03:16.869Z,-1.30
2018-02-14T01:05:45.173Z,-1.30
2018-02-14T01:08:13.865Z,-1.30
2018-02-14T01:10:42.908Z,-1.30
2018-02-14T01:13:11.202Z,-1.30
2018-02-14T01:15:39.481Z,-1.30
2018-02-14T01:18:07.767Z,-1.40
2018-02-14T01:20:50.799Z,-1.40
2018-02-14T01:23:19.080Z,-1.40
2018-02-14T01:25:48.110Z,-1.40
2018-02-14T01:28:16.407Z,-1.40
2018-02-14T01:30:44.915Z,-1.40
2018-02-14T01:33:13.179Z,-1.40
2018-02-14T01:35:41.469Z,-1.40
2018-02-14T01:38:09.733Z,-1.50
2018-02-14T01:40:38.047Z,-1.50
2018-02-14T01:43:07.099Z,-1.60
2018-02-14T01:45:35.389Z,-1.60
2018-02-14T01:48:03.693Z,-1.60
2018-02-14T01:50:38.983Z,-1.60
2018-02-14T01:53:07.241Z,-1.70
2018-02-14T01:55:36.260Z,-1.70
2018-02-14T01:58:04.636Z,-1.70
2018-02-14T02:00:33.045Z,-1.70
2018-02-14T02:03:01.338Z,-1.70
2018-02-14T02:05:29.608Z,-1.70
2018-02-14T02:07:57.890Z,-1.70
2018-02-14T02:10:26.171Z,-1.70
2018-02-14T02:12:54.476Z,-1.70
2018-02-14T02:15:23.509Z,-1.70
2018-02-14T02:17:51.829Z,-1.70
2018-02-14T02:20:20.089Z,-1.70
2018-02-14T02:22:48.360Z,-1.70
2018-02-14T02:25:16.639Z,-1.70
2018-02-14T02:27:44.919Z,-1.80
2018-02-14T02:30:14.149Z,-1.80
2018-02-14T02:32:43.176Z,-1.90
2018-02-14T02:35:11.492Z,-1.90
2018-02-14T02:37:39.756Z,-1.90
2018-02-14T02:40:19.757Z,-1.90
2018-02-14T02:42:48.047Z,-1.90
2018-02-14T02:45:17.092Z,-1.90
2018-02-14T02:47:45.398Z,-2.00
2018-02-14T02:50:14.700Z,-1.90
2018-02-14T02:52:43.013Z,-2.00
2018-02-14T02:55:11.284Z,-2.00
2018-02-14T02:57:39.575Z,-2.00
2018-02-14T03:00:07.828Z,-2.00
2018-02-14T03:02:36.894Z,-2.00
2018-02-14T03:05:05.172Z,-2.00
2018-02-14T03:07:33.478Z,-2.00
2018-02-14T03:10:02.508Z,-2.00
2018-02-14T03:12:30.801Z,-2.10
2018-02-14T03:14:59.069Z,-2.10
2018-02-14T03:17:27.339Z,-2.10
2018-02-14T03:19:55.620Z,-2.20
2018-02-14T03:22:23.894Z,-2.10
2018-02-14T03:24:52.234Z,-2.20
2018-02-14T03:27:20.490Z,-2.20
2018-02-14T03:29:48.818Z,-2.20
2018-02-14T03:32:17.094Z,-2.30
2018-02-14T03:34:45.391Z,-2.30
2018-02-14T03:37:13.859Z,-2.30
2018-02-14T03:39:42.295Z,-2.30
2018-02-14T03:42:10.558Z,-2.30
2018-02-14T03:44:39.600Z,-2.40
2018-02-14T03:47:07.892Z,-2.40
2018-02-14T03:49:36.167Z,-2.40
2018-02-14T03:52:04.466Z,-2.30
2018-02-14T03:54:32.749Z,-2.30
2018-02-14T03:57:01.054Z,-2.30
2018-02-14T03:59:29.316Z,-2.30
2018-02-14T04:01:57.626Z,-2.30
2018-02-14T04:04:26.670Z,-2.40
2018-02-14T04:06:54.941Z,-2.40
2018-02-14T04:09:23.233Z,-2.40
2018-02-14T04:11:51.492Z,-2.40
2018-02-14T04:14:19.802Z,-2.40
2018-02-14T04:16:48.087Z,-2.40
2018-02-14T04:19:16.372Z,-2.40
2018-02-14T04:21:44.648Z,-2.40
2018-02-14T04:24:13.224Z,-2.40
2018-02-14T04:26:41.621Z,-2.50
2018-02-14T04:29:09.861Z,-2.50
2018-02-14T04:31:38.136Z,-2.50
2018-02-14T04:34:06.488Z,-2.50
2018-02-14T04:36:34.789Z,-2.40
2018-02-14T04:39:03.056Z,-2.40
2018-02-14T04:41:31.342Z,-2.50
2018-02-14T04:43:59.618Z,-2.50
2018-02-14T04:46:27.921Z,-2.50
2018-02-14T04:48:56.197Z,-2.50
2018-02-14T04:51:24.496Z,-2.50
2018-02-14T04:53:52.768Z,-2.60
2018-02-14T04:56:21.042Z,-2.60
2018-02-14T04:58:49.337Z,-2.60
2018-02-14T05:01:18.388Z,-2.60
2018-02-14T05:03:46.664Z,-2.60
2018-02-14T05:06:14.942Z,-2.60
2018-02-14T05:08:43.263Z,-2.60
2018-02-14T05:11:11.505Z,-2.60
2018-02-14T05:13:39.817Z,-2.60
2018-02-14T05:16:08.098Z,-2.60
2018-02-14T05:18:36.406Z,-2.60
2018-02-14T05:21:04.719Z,-2.60
2018-02-14T05:23:32.994Z,-2.60
2018-02-14T05:26:01.287Z,-2.70
2018-02-14T05:28:29.574Z,-2.70
2018-02-14T05:30:57.860Z,-2.70
2018-02-14T05:33:26.141Z,-2.70
2018-02-14T05:35:54.560Z,-2.70
2018-02-14T05:38:22.820Z,-2.80
2018-02-14T05:40:52.067Z,-2.80
2018-02-14T05:43:20.724Z,-2.80
2018-02-14T05:45:49.002Z,-2.80
2018-02-14T05:48:17.296Z,-2.80
2018-02-14T05:50:45.563Z,-2.80
2018-02-14T05:53:13.894Z,-2.80
2018-02-14T05:55:42.169Z,-2.60
2018-02-14T05:58:10.456Z,-2.90
2018-02-14T06:00:38.732Z,-2.90
2018-02-14T06:03:07.039Z,-2.90
2018-02-14T06:05:36.090Z,-2.90
2018-02-14T06:08:04.381Z,-3.00
2018-02-14T06:10:32.656Z,-2.90
2018-02-14T06:13:00.933Z,-2.90
2018-02-14T06:16:09.260Z,-2.90
2018-02-14T06:18:37.521Z,-2.80
2018-02-14T06:21:16.719Z,-2.90
2018-02-14T06:23:57.590Z,-2.80
2018-02-14T06:26:25.914Z,-2.90
2018-02-14T06:28:54.193Z,-2.80
2018-02-14T06:31:22.501Z,-2.80
2018-02-14T06:33:50.778Z,-2.80
2018-02-14T06:36:19.074Z,-2.80
2018-02-14T06:38:47.344Z,-2.80
2018-02-14T06:41:15.667Z,-2.80
2018-02-14T06:43:43.934Z,-2.80
2018-02-14T06:46:12.201Z,-2.80
2018-02-14T06:48:40.520Z,-2.80
2018-02-14T06:51:08.808Z,-2.80
2018-02-14T06:53:37.146Z,-2.80
2018-02-14T06:56:05.570Z,-2.80
2018-02-14T06:58:34.632Z,-2.80
2018-02-14T07:01:02.900Z,-2.70
2018-02-14T07:03:31.500Z,-2.70
2018-02-14T07:05:59.787Z,-2.60
2018-02-14T07:08:28.063Z,-2.60
2018-02-14T07:10:56.357Z,-2.50
2018-02-14T07:13:25.405Z,-2.40
2018-02-14T07:15:53.717Z,-2.40
2018-02-14T07:18:22.070Z,-2.40
2018-02-14T07:20:50.359Z,-2.30
2018-02-14T07:23:24.349Z,-2.20
2018-02-14T07:25:52.637Z,-2.10
2018-02-14T07:28:20.920Z,-2.10
2018-02-14T07:30:49.206Z,-2.00
2018-02-14T07:33:17.501Z,-1.90
2018-02-14T07:35:46.093Z,-1.90
2018-02-14T07:38:14.410Z,-1.80
2018-02-14T07:40:42.733Z,-1.70
2018-02-14T07:43:11.022Z,-1.70
2018-02-14T07:45:39.317Z,-1.60
2018-02-14T07:48:07.608Z,-1.50
2018-02-14T07:50:35.875Z,-1.40
2018-02-14T07:53:04.194Z,-1.40
2018-02-14T07:55:32.501Z,-1.30
2018-02-14T07:58:00.776Z,-1.20
2018-02-14T08:00:29.050Z,-1.10
2018-02-14T08:02:57.352Z,-1.00
2018-02-14T08:05:26.429Z,-0.90
2018-02-14T08:07:54.705Z,-0.90
2018-02-14T08:10:22.985Z,-0.80
2018-02-14T08:12:51.276Z,-0.70
2018-02-14T08:15:19.890Z,-0.70
2018-02-14T08:17:48.490Z,-0.60
2018-02-14T08:20:16.760Z,-0.50
2018-02-14T08:22:46.060Z,-0.20
2018-02-14T08:25:14.340Z,-0.20
2018-02-14T08:27:42.653Z,-0.10
2018-02-14T08:30:10.913Z,0.10
2018-02-14T08:32:39.223Z,0.20
2018-02-14T08:35:07.482Z,0.20
2018-02-14T08:37:35.757Z,0.30
2018-02-14T08:40:04.019Z,0.40
2018-02-14T08:42:33.499Z,0.50
2018-02-14T08:45:01.774Z,0.60
2018-02-14T08:47:31.161Z,0.60
2018-02-14T08:50:01.183Z,0.90
2018-02-14T08:52:29.596Z,0.80
2018-02-14T08:54:58.227Z,0.90
2018-02-14T08:57:26.649Z,1.00
2018-02-14T08:59:54.980Z,1.00
2018-02-14T09:02:23.251Z,1.10
2018-02-14T09:04:51.574Z,1.20
2018-02-14T09:07:21.664Z,1.40
2018-02-14T09:09:50.026Z,1.40
2018-02-14T09:12:18.402Z,1.50
2018-02-14T09:14:46.749Z,1.60
2018-02-14T09:17:15.792Z,1.80
2018-02-14T09:19:44.096Z,1.80
2018-02-14T09:22:13.158Z,1.90
2018-02-14T09:24:41.434Z,1.90
2018-02-14T09:27:09.711Z,1.90
2018-02-14T09:29:38.005Z,2.00
2018-02-14T09:32:06.305Z,2.10
2018-02-14T09:34:34.581Z,2.20
2018-02-14T09:37:03.778Z,2.40
2018-02-14T09:39:32.039Z,2.40
2018-02-14T09:42:00.374Z,2.50
2018-02-14T09:44:28.680Z,2.60
2018-02-14T09:46:57.733Z,2.70
2018-02-14T09:49:26.061Z,2.70
2018-02-14T09:51:54.349Z,2.70
2018-02-14T09:54:22.729Z,2.80
2018-02-14T09:56:51.013Z,2.90
2018-02-14T09:59:20.074Z,3.00
2018-02-14T10:01:48.375Z,3.00
2018-02-14T10:04:16.673Z,3.10
2018-02-14T10:06:44.957Z,3.10
2018-02-14T10:09:14.009Z,3.30
2018-02-14T10:11:42.404Z,3.30
2018-02-14T10:14:10.666Z,3.40
2018-02-14T10:16:39.018Z,3.50
2018-02-14T10:19:07.287Z,3.60
2018-02-14T10:21:35.559Z,3.60
2018-02-14T10:24:03.867Z,3.70
2018-02-14T10:26:32.193Z,3.70
2018-02-14T10:29:00.547Z,3.80
2018-02-14T10:31:28.867Z,3.80
2018-02-14T10:33:57.950Z,4.00
2018-02-14T10:36:26.244Z,4.00
2018-02-14T10:38:54.594Z,4.10
2018-02-14T10:41:22.971Z,4.20
2018-02-14T10:43:51.265Z,4.40
2018-02-14T10:46:20.322Z,4.50
2018-02-14T10:48:48.590Z,4.50
2018-02-14T10:51:16.903Z,4.60
2018-02-14T10:53:45.200Z,4.60
2018-02-14T10:56:14.288Z,4.80
2018-02-14T10:58:43.350Z,4.90
2018-02-14T11:01:17.533Z,4.90
2018-02-14T11:03:45.806Z,5.00
2018-02-14T11:06:14.145Z,5.10
2018-02-14T11:08:42.406Z,5.30
2018-02-14T11:11:10.712Z,5.40
2018-02-14T11:13:39.768Z,5.50
2018-02-14T11:16:08.083Z,5.50
2018-02-14T11:18:37.199Z,5.70
2018-02-14T11:21:05.497Z,5.70
2018-02-14T11:23:33.795Z,5.80
2018-02-14T11:26:02.086Z,5.90
2018-02-14T11:28:30.442Z,6.00
2018-02-14T11:30:58.729Z,6.10
2018-02-14T11:33:27.056Z,6.30
2018-02-14T11:35:56.359Z,6.40
2018-02-14T11:38:25.401Z,6.60
2018-02-14T11:40:53.714Z,6.60
2018-02-14T11:43:22.040Z,6.80
2018-02-14T11:45:51.074Z,6.90
2018-02-14T11:48:19.345Z,6.90
2018-02-14T11:50:47.633Z,7.10
2018-02-14T11:53:15.908Z,7.30
2018-02-14T11:55:44.249Z,7.90
2018-02-14T11:58:14.406Z,8.40
2018-02-14T12:00:42.733Z,9.00
2018-02-14T12:03:11.818Z,9.90
2018-02-14T12:05:40.899Z,10.30
2018-02-14T12:08:09.184Z,10.30
2018-02-14T12:10:37.513Z,10.50
2018-02-14T12:13:05.816Z,10.60
2018-02-14T12:15:34.126Z,10.70
2018-02-14T12:18:03.228Z,10.40
2018-02-14T12:20:31.502Z,10.40
2018-02-14T12:23:00.684Z,10.20
2018-02-14T12:25:28.987Z,10.20
2018-02-14T12:27:57.309Z,10.20
2018-02-14T12:30:25.616Z,10.10
2018-02-14T12:32:54.235Z,9.90
2018-02-14T12:35:22.537Z,10.30
2018-02-14T12:37:50.830Z,10.60
2018-02-14T12:40:19.139Z,11.40
2018-02-14T12:42:47.518Z,13.00
2018-02-14T12:45:15.819Z,14.60
2018-02-14T12:47:44.852Z,17.70
2018-02-14T12:50:13.161Z,17.60
2018-02-14T12:52:41.444Z,19.00
2018-02-14T12:55:09.752Z,20.10
2018-02-14T12:57:38.814Z,20.70
2018-02-14T13:00:07.100Z,20.70
2018-02-14T13:02:35.467Z,20.50
2018-02-14T13:05:03.771Z,19.90
2018-02-14T13:07:32.073Z,19.20
2018-02-14T13:10:00.370Z,19.50
2018-02-14T13:12:28.676Z,19.50
2018-02-14T13:14:57.008Z,19.80
2018-02-14T13:17:26.127Z,21.30
2018-02-14T13:19:54.408Z,21.30
2018-02-14T13:22:22.697Z,21.80
2018-02-14T13:24:51.011Z,21.60
2018-02-14T13:27:19.326Z,20.60
2018-02-14T13:29:47.636Z,19.10
2018-02-14T13:32:15.906Z,17.60
2018-02-14T13:34:44.253Z,16.30
2018-02-14T13:37:12.534Z,15.20
2018-02-14T13:39:41.638Z,13.90
2018-02-14T13:42:09.926Z,13.50
2018-02-14T13:44:38.211Z,12.90
2018-02-14T13:47:06.534Z,12.40
2018-02-14T13:49:34.837Z,11.90
2018-02-14T13:52:03.894Z,11.00
2018-02-14T13:54:32.174Z,11.00
2018-02-14T13:57:00.485Z,10.60
2018-02-14T13:59:28.768Z,10.20
2018-02-14T14:01:57.441Z,9.90
2018-02-14T14:04:25.720Z,9.60
2018-02-14T14:06:53.990Z,9.20
2018-02-14T14:09:23.047Z,8.60
2018-02-14T14:11:51.334Z,8.50
2018-02-14T14:14:19.647Z,8.30
2018-02-14T14:16:48.676Z,8.00
2018-02-14T14:19:16.991Z,8.00
2018-02-14T14:21:45.254Z,7.90
2018-02-14T14:24:13.550Z,7.80
2018-02-14T14:26:41.809Z,7.60
2018-02-14T14:29:12.937Z,7.50
2018-02-14T14:31:41.245Z,7.50
2018-02-14T14:34:09.691Z,7.50
2018-02-14T14:36:38.013Z,7.40
2018-02-14T14:39:06.334Z,7.40
2018-02-14T14:41:34.634Z,7.30
2018-02-14T14:44:02.916Z,7.20
2018-02-14T14:46:31.213Z,7.10
2018-02-14T14:48:59.487Z,7.00
2018-02-14T14:51:27.763Z,6.90
2018-02-14T14:53:56.155Z,6.90
2018-02-14T14:56:24.752Z,6.90
2018-02-14T14:58:53.027Z,6.90
2018-02-14T15:01:21.289Z,6.90
2018-02-14T15:03:49.837Z,6.80
2018-02-14T15:06:18.137Z,6.70
2018-02-14T15:08:46.427Z,6.60
2018-02-14T15:11:14.715Z,6.60
2018-02-14T15:13:42.980Z,6.50
2018-02-14T15:16:11.302Z,6.50
2018-02-14T15:18:40.365Z,6.40
2018-02-14T15:21:08.673Z,6.40
2018-02-14T15:23:37.726Z,6.30
2018-02-14T15:26:06.014Z,6.30
2018-02-14T15:28:34.364Z,6.30
2018-02-14T15:31:03.423Z,6.20
2018-02-14T15:33:32.510Z,6.10
2018-02-14T15:36:00.789Z,6.10
2018-02-14T15:38:29.888Z,5.90
2018-02-14T15:40:58.946Z,5.90
2018-02-14T15:43:27.259Z,5.90
2018-02-14T15:45:55.558Z,5.80
2018-02-14T15:48:23.842Z,5.70
2018-02-14T15:50:52.134Z,5.70
2018-02-14T15:53:20.402Z,5.70
2018-02-14T15:55:49.461Z,5.60
2018-02-14T15:58:18.536Z,5.60
2018-02-14T16:00:46.834Z,5.50
2018-02-14T16:03:15.129Z,5.50
2018-02-14T16:05:44.210Z,5.40
2018-02-14T16:08:12.527Z,5.40
2018-02-14T16:10:40.855Z,5.30
2018-02-14T16:13:09.154Z,5.20
2018-02-14T16:15:38.199Z,5.10
2018-02-14T16:18:06.908Z,5.10
2018-02-14T16:20:35.298Z,5.10
2018-02-14T16:23:03.731Z,5.10
2018-02-14T16:25:32.323Z,5.00
2018-02-14T16:28:00.646Z,4.90
2018-02-14T16:30:28.942Z,4.90
2018-02-14T16:32:57.975Z,4.70
2018-02-14T16:35:26.308Z,4.70
2018-02-14T16:47:32.290Z,4.30
2018-02-14T16:52:55.590Z,4.20
2018-02-14T16:55:24.259Z,4.10
2018-02-14T16:57:52.578Z,4.00
2018-02-14T17:00:20.929Z,4.00
2018-02-14T17:02:57.876Z,3.90
2018-02-14T17:05:26.338Z,3.80
2018-02-14T17:07:55.429Z,3.70
2018-02-14T17:10:24.631Z,3.60
2018-02-14T17:12:55.912Z,3.60
2018-02-14T17:15:38.069Z,3.50
2018-02-14T17:18:06.409Z,3.50
2018-02-14T17:20:35.520Z,3.30
2018-02-14T17:23:03.817Z,3.30
2018-02-14T17:25:32.167Z,3.30
2018-02-14T17:28:00.561Z,3.20
2018-02-14T17:30:28.896Z,3.20
2018-02-14T17:32:57.334Z,3.10
2018-02-14T17:35:25.698Z,3.10
2018-02-14T17:37:54.991Z,3.00
2018-02-14T17:40:23.305Z,3.00
2018-02-14T17:42:54.344Z,2.90
2018-02-14T17:45:22.704Z,2.90
2018-02-14T17:47:51.067Z,2.80
2018-02-14T17:50:19.388Z,2.80
2018-02-14T17:52:48.488Z,2.70
2018-02-14T17:55:18.245Z,2.70
2018-02-14T17:57:46.579Z,2.60
2018-02-14T18:00:15.676Z,2.60
2018-02-14T18:02:44.041Z,2.50
2018-02-14T18:05:12.320Z,2.50
2018-02-14T18:07:41.516Z,2.50
2018-02-14T18:10:10.486Z,2.50
2018-02-14T18:12:38.776Z,2.40
2018-02-14T18:15:07.203Z,2.40
2018-02-14T18:17:35.576Z,2.40
2018-02-14T18:20:22.667Z,2.30
2018-02-14T18:22:51.044Z,2.30
2018-02-14T18:25:20.526Z,2.20
2018-02-14T18:27:48.915Z,2.20
2018-02-14T18:30:17.515Z,2.20
2018-02-14T18:32:45.813Z,2.20
2018-02-14T18:35:20.732Z,2.10
2018-02-14T18:37:49.134Z,2.20
2018-02-14T18:40:18.357Z,2.20
2018-02-14T18:43:06.063Z,2.20
2018-02-14T18:45:34.441Z,2.10
2018-02-14T18:48:03.621Z,2.10
2018-02-14T18:50:31.989Z,2.10
2018-02-14T18:53:06.954Z,2.10
2018-02-14T18:55:38.118Z,2.00
2018-02-14T18:58:06.593Z,2.00
2018-02-14T19:00:34.898Z,2.00
2018-02-14T19:03:04.530Z,2.00
2018-02-14T19:05:49.154Z,1.90
2018-02-14T19:11:23.972Z,1.80
2018-02-14T19:13:56.654Z,1.80
2018-02-14T19:16:26.058Z,1.70
2018-02-14T19:19:02.795Z,1.70
2018-02-14T19:21:31.286Z,1.60
2018-02-14T19:24:00.702Z,1.60
2018-02-14T19:26:29.081Z,1.60
2018-02-14T19:31:32.906Z,1.60
2018-02-14T19:34:13.270Z,1.60
2018-02-14T19:36:42.736Z,1.60
2018-02-14T19:39:11.223Z,1.60
2018-02-14T19:41:39.660Z,1.50
2018-02-14T19:44:08.925Z,1.50
2018-02-14T19:46:38.558Z,1.50
2018-02-14T19:49:13.312Z,1.50
2018-02-14T19:51:42.486Z,1.40
2018-02-14T19:54:10.928Z,1.30
2018-02-14T19:56:39.660Z,1.40
2018-02-14T19:59:08.261Z,1.30
2018-02-14T20:01:36.769Z,1.30
2018-02-14T20:04:05.240Z,1.20
2018-02-14T20:06:34.378Z,1.10
2018-02-14T20:09:02.926Z,1.10
2018-02-14T20:11:31.425Z,1.10
2018-02-14T20:13:59.770Z,1.10
2018-02-14T20:16:28.094Z,1.10
2018-02-14T20:18:56.464Z,1.00
2018-02-14T20:21:25.209Z,0.90
2018-02-14T20:23:54.838Z,0.90
2018-02-14T20:26:23.966Z,0.70
2018-02-14T20:28:52.290Z,0.70
2018-02-14T20:31:20.629Z,0.70
2018-02-14T20:33:48.949Z,0.70
2018-02-14T20:36:17.679Z,0.70
2018-02-14T20:38:46.064Z,0.60
2018-02-14T20:41:14.354Z,0.60
2018-02-14T20:43:42.801Z,0.60
2018-02-14T20:46:11.362Z,0.60
2018-02-14T20:48:40.780Z,0.60
2018-02-14T20:51:13.695Z,0.50
2018-02-14T20:53:42.726Z,0.40
2018-02-14T20:56:11.934Z,0.40
2018-02-14T20:58:41.153Z,0.30
2018-02-14T21:01:10.413Z,0.30
2018-02-14T21:03:38.883Z,0.20
2018-02-14T21:06:07.469Z,0.20
2018-02-14T21:08:36.590Z,0.10
2018-02-14T21:11:05.411Z,0.10
2018-02-14T21:13:33.976Z,0.00
2018-02-14T21:16:02.286Z,0.00
2018-02-14T21:18:31.892Z,-0.20
2018-02-14T21:21:01.038Z,-0.20
2018-02-14T21:23:29.448Z,-0.20
2018-02-14T21:25:58.456Z,-0.20
2018-02-14T21:28:26.860Z,-0.20
2018-02-14T21:30:56.701Z,-0.20
2018-02-14T21:33:25.059Z,-0.30
2018-02-14T21:35:53.464Z,-0.20
2018-02-14T21:38:21.893Z,-0.20
2018-02-14T21:40:51.381Z,-0.20
2018-02-14T21:43:19.667Z,-0.20
2018-02-14T21:45:47.987Z,-0.20
2018-02-14T21:48:16.276Z,-0.20
2018-02-14T21:50:45.365Z,-0.20
2018-02-14T21:53:13.799Z,-0.20
2018-02-14T21:55:42.107Z,-0.20
2018-02-14T21:58:10.474Z,-0.20
2018-02-14T22:00:39.610Z,-0.20
2018-02-14T22:03:07.908Z,-0.30
2018-02-14T22:05:36.190Z,-0.30
2018-02-14T22:08:08.302Z,-0.30
2018-02-14T22:10:37.396Z,-0.20
2018-02-14T22:13:05.935Z,-0.30
2018-02-14T22:15:34.288Z,-0.30
2018-02-14T22:18:02.649Z,-0.30
2018-02-14T22:23:26.329Z,-0.30
2018-02-14T22:25:55.535Z,-0.30
2018-02-14T22:28:24.570Z,-0.30
2018-02-14T22:30:52.880Z,-0.40
2018-02-14T22:33:21.201Z,-0.40
2018-02-14T22:35:49.523Z,-0.30
2018-02-14T22:38:18.171Z,-0.30
2018-02-14T22:40:46.462Z,-0.40
2018-02-14T22:43:14.783Z,-0.30
2018-02-14T22:45:43.593Z,-0.40
2018-02-14T22:48:12.654Z,-0.40
2018-02-14T22:50:40.954Z,-0.40
2018-02-14T22:53:09.253Z,-0.40
2018-02-14T22:55:38.281Z,-0.50
2018-02-14T22:58:06.606Z,-0.50
2018-02-14T23:00:35.690Z,-0.50
2018-02-14T23:03:05.068Z,-0.50
2018-02-14T23:05:37.213Z,-0.50
2018-02-14T23:08:05.540Z,-0.60
2018-02-14T23:10:33.855Z,-0.60
2018-02-14T23:13:02.141Z,-0.60
2018-02-14T23:15:30.459Z,-0.60
2018-02-14T23:17:58.739Z,-0.60
2018-02-14T23:20:28.152Z,-0.60
2018-02-14T23:22:56.421Z,-0.60
2018-02-14T23:25:27.770Z,-0.60
2018-02-14T23:27:56.088Z,-0.60
2018-02-14T23:30:26.288Z,-0.60
2018-02-14T23:32:54.580Z,-0.60
2018-02-14T23:35:23.620Z,-0.60
2018-02-14T23:37:51.916Z,-0.60
2018-02-14T23:40:21.144Z,-0.60
2018-02-14T23:42:50.224Z,-0.70
2018-02-14T23:45:20.186Z,-0.70
2018-02-14T23:47:48.491Z,-0.70
2018-02-14T23:50:18.598Z,-0.70
2018-02-14T23:52:46.897Z,-0.70
2018-02-14T23:55:15.187Z,-0.70
2018-02-14T23:57:43.576Z,-0.70
